Terminal Aerodrome Forecast
Issued by NWS

Home | Current Version | Previous Version | Text Only | Print | Product List | Glossary On
Versions: 1 2 3 4 5 6 7 8 9 10 11 12 13 14 15
000
FTAK31 PAJN 010500
TAFAKT
TAF
PAKT 010535Z 0106/0206 VRB03KT P6SM BKN150
     FM011200 34010KT P6SM BKN050 OVC100
     FM011500 34011KT 6SM -RASN BR BKN040 OVC060
     FM011800 14010KT 5SM -RA BR BKN020 OVC040
     FM020000 14008KT 4SM -RA BR SCT012 OVC025
      AMD LTD TO CLD VIS AND WIND 0106/0115=

USA.gov is the U.S. government's official web portal to all federal, state and local government web resources and services.